sensor_id;sensor_type;location;lat;lon;timestamp;P1;durP1;ratioP1;P2;durP2;ratioP2
57433;SDS011;43277;52.672;6.984;2024-01-30T00:01:35;23.05;;;18.25;;
57433;SDS011;43277;52.672;6.984;2024-01-30T00:04:01;14.90;;;9.20;;
57433;SDS011;43277;52.672;6.984;2024-01-30T00:06:27;17.92;;;8.63;;
57433;SDS011;43277;52.672;6.984;2024-01-30T00:08:53;24.10;;;17.65;;
57433;SDS011;43277;52.672;6.984;2024-01-30T00:11:18;24.48;;;17.88;;
57433;SDS011;43277;52.672;6.984;2024-01-30T00:13:44;15.25;;;8.50;;
57433;SDS011;43277;52.672;6.984;2024-01-30T00:16:19;13.85;;;7.20;;
57433;SDS011;43277;52.672;6.984;2024-01-30T00:18:51;22.27;;;15.05;;
57433;SDS011;43277;52.672;6.984;2024-01-30T00:21:17;16.85;;;8.85;;
57433;SDS011;43277;52.672;6.984;2024-01-30T00:23:43;20.77;;;18.58;;
57433;SDS011;43277;52.672;6.984;2024-01-30T00:26:09;19.85;;;13.77;;
57433;SDS011;43277;52.672;6.984;2024-01-30T00:28:34;17.27;;;9.05;;
57433;SDS011;43277;52.672;6.984;2024-01-30T00:31:00;24.60;;;18.80;;
57433;SDS011;43277;52.672;6.984;2024-01-30T00:33:26;22.95;;;17.75;;
57433;SDS011;43277;52.672;6.984;2024-01-30T00:35:52;20.85;;;18.50;;
57433;SDS011;43277;52.672;6.984;2024-01-30T00:38:17;16.42;;;8.60;;
57433;SDS011;43277;52.672;6.984;2024-01-30T00:40:43;21.63;;;18.42;;
57433;SDS011;43277;52.672;6.984;2024-01-30T00:43:08;13.90;;;8.05;;
57433;SDS011;43277;52.672;6.984;2024-01-30T00:45:34;21.63;;;17.98;;
57433;SDS011;43277;52.672;6.984;2024-01-30T00:47:59;15.40;;;8.50;;
57433;SDS011;43277;52.672;6.984;2024-01-30T00:50:25;22.15;;;18.55;;
57433;SDS011;43277;52.672;6.984;2024-01-30T00:52:51;22.23;;;15.40;;
57433;SDS011;43277;52.672;6.984;2024-01-30T00:55:16;22.38;;;18.92;;
57433;SDS011;43277;52.672;6.984;2024-01-30T00:57:42;15.70;;;8.55;;
57433;SDS011;43277;52.672;6.984;2024-01-30T01:00:08;14.85;;;7.90;;
57433;SDS011;43277;52.672;6.984;2024-01-30T01:02:37;22.92;;;18.00;;
57433;SDS011;43277;52.672;6.984;2024-01-30T01:05:04;13.63;;;8.27;;
57433;SDS011;43277;52.672;6.984;2024-01-30T01:07:30;17.58;;;8.27;;
57433;SDS011;43277;52.672;6.984;2024-01-30T01:09:55;19.85;;;8.52;;
57433;SDS011;43277;52.672;6.984;2024-01-30T01:12:21;17.45;;;8.77;;
57433;SDS011;43277;52.672;6.984;2024-01-30T01:14:47;15.48;;;7.65;;
57433;SDS011;43277;52.672;6.984;2024-01-30T01:17:12;18.08;;;9.48;;
57433;SDS011;43277;52.672;6.984;2024-01-30T01:19:38;20.63;;;18.20;;
57433;SDS011;43277;52.672;6.984;2024-01-30T01:22:03;17.67;;;14.18;;
57433;SDS011;43277;52.672;6.984;2024-01-30T01:24:32;23.70;;;18.63;;
57433;SDS011;43277;52.672;6.984;2024-01-30T01:26:58;15.45;;;8.55;;
57433;SDS011;43277;52.672;6.984;2024-01-30T01:29:24;26.13;;;19.08;;
57433;SDS011;43277;52.672;6.984;2024-01-30T01:31:56;14.93;;;7.78;;
57433;SDS011;43277;52.672;6.984;2024-01-30T01:34:21;15.27;;;7.80;;
57433;SDS011;43277;52.672;6.984;2024-01-30T01:36:48;14.93;;;7.20;;
57433;SDS011;43277;52.672;6.984;2024-01-30T01:39:14;17.20;;;9.90;;
57433;SDS011;43277;52.672;6.984;2024-01-30T01:41:40;21.70;;;18.20;;
57433;SDS011;43277;52.672;6.984;2024-01-30T01:44:06;13.98;;;7.53;;
57433;SDS011;43277;52.672;6.984;2024-01-30T01:46:33;12.70;;;7.57;;
57433;SDS011;43277;52.672;6.984;2024-01-30T01:49:00;17.33;;;9.65;;
57433;SDS011;43277;52.672;6.984;2024-01-30T01:51:27;22.98;;;18.98;;
57433;SDS011;43277;52.672;6.984;2024-01-30T01:53:54;18.67;;;8.40;;
57433;SDS011;43277;52.672;6.984;2024-01-30T01:56:22;22.45;;;18.98;;
57433;SDS011;43277;52.672;6.984;2024-01-30T01:58:48;14.27;;;7.55;;
57433;SDS011;43277;52.672;6.984;2024-01-30T02:01:16;21.08;;;18.67;;
57433;SDS011;43277;52.672;6.984;2024-01-30T02:06:16;24.40;;;19.27;;
57433;SDS011;43277;52.672;6.984;2024-01-30T02:08:42;14.95;;;8.93;;
57433;SDS011;43277;52.672;6.984;2024-01-30T02:11:08;21.45;;;18.95;;
57433;SDS011;43277;52.672;6.984;2024-01-30T02:13:35;23.27;;;18.23;;
57433;SDS011;43277;52.672;6.984;2024-01-30T02:16:01;16.50;;;8.27;;
57433;SDS011;43277;52.672;6.984;2024-01-30T02:18:26;22.33;;;18.52;;
57433;SDS011;43277;52.672;6.984;2024-01-30T02:20:53;26.13;;;19.20;;
57433;SDS011;43277;52.672;6.984;2024-01-30T02:23:21;15.70;;;8.07;;
57433;SDS011;43277;52.672;6.984;2024-01-30T02:25:52;14.48;;;8.48;;
57433;SDS011;43277;52.672;6.984;2024-01-30T02:28:18;19.38;;;9.20;;
57433;SDS011;43277;52.672;6.984;2024-01-30T02:30:44;21.77;;;19.25;;
57433;SDS011;43277;52.672;6.984;2024-01-30T02:33:11;22.77;;;19.35;;
57433;SDS011;43277;52.672;6.984;2024-01-30T02:35:37;23.48;;;19.05;;
57433;SDS011;43277;52.672;6.984;2024-01-30T02:38:02;14.52;;;8.25;;
57433;SDS011;43277;52.672;6.984;2024-01-30T02:40:28;22.33;;;19.25;;
57433;SDS011;43277;52.672;6.984;2024-01-30T02:42:54;16.08;;;8.75;;
57433;SDS011;43277;52.672;6.984;2024-01-30T02:45:19;21.90;;;19.05;;
57433;SDS011;43277;52.672;6.984;2024-01-30T02:47:45;16.73;;;8.82;;
57433;SDS011;43277;52.672;6.984;2024-01-30T02:50:11;24.48;;;20.10;;
57433;SDS011;43277;52.672;6.984;2024-01-30T02:52:36;24.23;;;20.17;;
57433;SDS011;43277;52.672;6.984;2024-01-30T02:55:02;23.63;;;19.45;;
57433;SDS011;43277;52.672;6.984;2024-01-30T02:57:28;23.75;;;20.52;;
57433;SDS011;43277;52.672;6.984;2024-01-30T02:59:54;22.33;;;19.92;;
57433;SDS011;43277;52.672;6.984;2024-01-30T03:02:19;22.27;;;19.83;;
57433;SDS011;43277;52.672;6.984;2024-01-30T03:04:45;16.42;;;7.20;;
57433;SDS011;43277;52.672;6.984;2024-01-30T03:07:11;23.10;;;20.10;;
57433;SDS011;43277;52.672;6.984;2024-01-30T03:09:37;22.08;;;19.67;;
57433;SDS011;43277;52.672;6.984;2024-01-30T03:12:03;14.02;;;8.98;;
57433;SDS011;43277;52.672;6.984;2024-01-30T03:14:32;23.05;;;19.38;;
57433;SDS011;43277;52.672;6.984;2024-01-30T03:16:58;13.15;;;7.45;;
57433;SDS011;43277;52.672;6.984;2024-01-30T03:19:23;24.30;;;7.75;;
57433;SDS011;43277;52.672;6.984;2024-01-30T03:21:49;17.10;;;10.45;;
57433;SDS011;43277;52.672;6.984;2024-01-30T03:24:16;16.95;;;8.20;;
57433;SDS011;43277;52.672;6.984;2024-01-30T03:26:42;24.08;;;20.17;;
57433;SDS011;43277;52.672;6.984;2024-01-30T03:29:08;24.73;;;21.10;;
57433;SDS011;43277;52.672;6.984;2024-01-30T03:31:34;21.50;;;18.80;;
57433;SDS011;43277;52.672;6.984;2024-01-30T03:34:00;23.20;;;15.50;;
57433;SDS011;43277;52.672;6.984;2024-01-30T03:36:26;22.13;;;19.67;;
57433;SDS011;43277;52.672;6.984;2024-01-30T03:38:52;23.63;;;20.00;;
57433;SDS011;43277;52.672;6.984;2024-01-30T03:41:17;16.83;;;8.88;;
57433;SDS011;43277;52.672;6.984;2024-01-30T03:43:43;23.60;;;19.60;;
57433;SDS011;43277;52.672;6.984;2024-01-30T03:46:09;16.27;;;8.40;;
57433;SDS011;43277;52.672;6.984;2024-01-30T03:48:36;15.65;;;8.85;;
57433;SDS011;43277;52.672;6.984;2024-01-30T03:51:02;23.17;;;19.55;;
57433;SDS011;43277;52.672;6.984;2024-01-30T03:53:27;21.13;;;9.00;;
57433;SDS011;43277;52.672;6.984;2024-01-30T03:55:53;24.25;;;20.90;;
57433;SDS011;43277;52.672;6.984;2024-01-30T03:58:18;19.63;;;9.40;;
57433;SDS011;43277;52.672;6.984;2024-01-30T04:00:44;21.90;;;13.73;;
57433;SDS011;43277;52.672;6.984;2024-01-30T04:03:09;15.00;;;8.25;;
57433;SDS011;43277;52.672;6.984;2024-01-30T04:05:35;24.13;;;19.90;;
57433;SDS011;43277;52.672;6.984;2024-01-30T04:08:01;22.92;;;20.27;;
57433;SDS011;43277;52.672;6.984;2024-01-30T04:10:26;22.83;;;20.42;;
57433;SDS011;43277;52.672;6.984;2024-01-30T04:12:52;24.13;;;20.98;;
57433;SDS011;43277;52.672;6.984;2024-01-30T04:15:19;24.10;;;20.52;;
57433;SDS011;43277;52.672;6.984;2024-01-30T04:17:44;16.42;;;8.50;;
57433;SDS011;43277;52.672;6.984;2024-01-30T04:20:13;25.98;;;21.13;;
57433;SDS011;43277;52.672;6.984;2024-01-30T04:22:41;15.80;;;9.10;;
57433;SDS011;43277;52.672;6.984;2024-01-30T04:25:08;23.77;;;17.98;;
57433;SDS011;43277;52.672;6.984;2024-01-30T04:27:33;23.35;;;19.83;;
57433;SDS011;43277;52.672;6.984;2024-01-30T04:29:59;24.92;;;22.23;;
57433;SDS011;43277;52.672;6.984;2024-01-30T04:32:25;29.00;;;22.02;;
57433;SDS011;43277;52.672;6.984;2024-01-30T04:34:50;25.40;;;22.77;;
57433;SDS011;43277;52.672;6.984;2024-01-30T04:37:16;16.85;;;9.25;;
57433;SDS011;43277;52.672;6.984;2024-01-30T04:39:41;22.08;;;17.38;;
57433;SDS011;43277;52.672;6.984;2024-01-30T04:42:07;23.00;;;17.55;;
57433;SDS011;43277;52.672;6.984;2024-01-30T04:44:33;18.95;;;9.30;;
57433;SDS011;43277;52.672;6.984;2024-01-30T04:46:58;17.08;;;9.32;;
57433;SDS011;43277;52.672;6.984;2024-01-30T04:49:26;25.65;;;21.75;;
57433;SDS011;43277;52.672;6.984;2024-01-30T04:51:52;24.15;;;21.42;;
57433;SDS011;43277;52.672;6.984;2024-01-30T04:54:18;14.00;;;8.38;;
57433;SDS011;43277;52.672;6.984;2024-01-30T04:56:43;27.95;;;22.95;;
57433;SDS011;43277;52.672;6.984;2024-01-30T04:59:09;25.05;;;22.48;;
57433;SDS011;43277;52.672;6.984;2024-01-30T05:01:34;21.92;;;9.77;;
57433;SDS011;43277;52.672;6.984;2024-01-30T05:04:00;15.10;;;8.88;;
57433;SDS011;43277;52.672;6.984;2024-01-30T05:06:26;25.17;;;22.58;;
57433;SDS011;43277;52.672;6.984;2024-01-30T05:08:52;17.90;;;9.13;;
57433;SDS011;43277;52.672;6.984;2024-01-30T05:11:18;15.15;;;8.10;;
57433;SDS011;43277;52.672;6.984;2024-01-30T05:13:44;18.25;;;9.50;;
57433;SDS011;43277;52.672;6.984;2024-01-30T05:16:09;24.20;;;21.40;;
57433;SDS011;43277;52.672;6.984;2024-01-30T05:18:35;19.55;;;9.82;;
57433;SDS011;43277;52.672;6.984;2024-01-30T05:21:01;24.42;;;21.80;;
57433;SDS011;43277;52.672;6.984;2024-01-30T05:23:27;24.08;;;19.90;;
57433;SDS011;43277;52.672;6.984;2024-01-30T05:25:53;16.95;;;8.63;;
57433;SDS011;43277;52.672;6.984;2024-01-30T05:28:18;20.00;;;9.95;;
57433;SDS011;43277;52.672;6.984;2024-01-30T05:30:44;23.95;;;21.30;;
57433;SDS011;43277;52.672;6.984;2024-01-30T05:33:09;23.88;;;21.50;;
57433;SDS011;43277;52.672;6.984;2024-01-30T05:35:37;24.95;;;21.75;;
57433;SDS011;43277;52.672;6.984;2024-01-30T05:38:02;22.58;;;20.27;;
57433;SDS011;43277;52.672;6.984;2024-01-30T05:40:29;27.42;;;22.40;;
57433;SDS011;43277;52.672;6.984;2024-01-30T05:42:55;15.15;;;8.95;;
57433;SDS011;43277;52.672;6.984;2024-01-30T05:45:20;21.33;;;18.08;;
57433;SDS011;43277;52.672;6.984;2024-01-30T05:47:48;17.60;;;8.80;;
57433;SDS011;43277;52.672;6.984;2024-01-30T05:50:13;26.27;;;22.20;;
57433;SDS011;43277;52.672;6.984;2024-01-30T05:52:39;23.70;;;15.75;;
57433;SDS011;43277;52.672;6.984;2024-01-30T05:55:05;23.88;;;21.40;;
57433;SDS011;43277;52.672;6.984;2024-01-30T05:57:31;23.92;;;21.52;;
57433;SDS011;43277;52.672;6.984;2024-01-30T05:59:57;24.00;;;21.25;;
57433;SDS011;43277;52.672;6.984;2024-01-30T06:02:22;23.33;;;20.95;;
57433;SDS011;43277;52.672;6.984;2024-01-30T06:04:48;17.63;;;14.23;;
57433;SDS011;43277;52.672;6.984;2024-01-30T06:07:14;16.30;;;8.25;;
57433;SDS011;43277;52.672;6.984;2024-01-30T06:09:39;24.95;;;22.25;;
57433;SDS011;43277;52.672;6.984;2024-01-30T06:12:05;22.75;;;20.15;;
57433;SDS011;43277;52.672;6.984;2024-01-30T06:14:31;21.15;;;8.95;;
57433;SDS011;43277;52.672;6.984;2024-01-30T06:16:57;18.98;;;10.55;;
57433;SDS011;43277;52.672;6.984;2024-01-30T06:19:24;23.70;;;21.27;;
57433;SDS011;43277;52.672;6.984;2024-01-30T06:21:49;20.67;;;10.35;;
57433;SDS011;43277;52.672;6.984;2024-01-30T06:24:15;22.88;;;20.42;;
57433;SDS011;43277;52.672;6.984;2024-01-30T06:26:40;25.30;;;21.40;;
57433;SDS011;43277;52.672;6.984;2024-01-30T06:29:06;15.85;;;9.10;;
57433;SDS011;43277;52.672;6.984;2024-01-30T06:31:32;26.25;;;20.15;;
57433;SDS011;43277;52.672;6.984;2024-01-30T06:33:58;22.08;;;19.73;;
57433;SDS011;43277;52.672;6.984;2024-01-30T06:36:24;23.52;;;20.58;;
57433;SDS011;43277;52.672;6.984;2024-01-30T06:38:49;24.42;;;20.10;;
57433;SDS011;43277;52.672;6.984;2024-01-30T06:41:15;22.95;;;20.55;;
57433;SDS011;43277;52.672;6.984;2024-01-30T06:43:40;22.45;;;20.13;;
57433;SDS011;43277;52.672;6.984;2024-01-30T06:46:06;16.30;;;9.55;;
57433;SDS011;43277;52.672;6.984;2024-01-30T06:48:32;21.90;;;19.08;;
57433;SDS011;43277;52.672;6.984;2024-01-30T06:50:57;22.88;;;19.27;;
57433;SDS011;43277;52.672;6.984;2024-01-30T06:53:23;22.10;;;19.17;;
57433;SDS011;43277;52.672;6.984;2024-01-30T06:55:49;20.67;;;18.48;;
57433;SDS011;43277;52.672;6.984;2024-01-30T06:58:15;22.05;;;17.50;;
57433;SDS011;43277;52.672;6.984;2024-01-30T07:00:40;13.65;;;7.70;;
57433;SDS011;43277;52.672;6.984;2024-01-30T07:03:06;14.02;;;8.57;;
57433;SDS011;43277;52.672;6.984;2024-01-30T07:05:32;20.45;;;17.27;;
57433;SDS011;43277;52.672;6.984;2024-01-30T07:07:58;22.33;;;18.67;;
57433;SDS011;43277;52.672;6.984;2024-01-30T07:10:23;21.50;;;17.63;;
57433;SDS011;43277;52.672;6.984;2024-01-30T07:12:49;16.33;;;9.77;;
57433;SDS011;43277;52.672;6.984;2024-01-30T07:15:14;19.02;;;16.92;;
57433;SDS011;43277;52.672;6.984;2024-01-30T07:17:44;24.27;;;17.55;;
57433;SDS011;43277;52.672;6.984;2024-01-30T07:20:10;19.48;;;16.65;;
57433;SDS011;43277;52.672;6.984;2024-01-30T07:22:36;15.52;;;8.00;;
57433;SDS011;43277;52.672;6.984;2024-01-30T07:25:01;15.57;;;8.80;;
57433;SDS011;43277;52.672;6.984;2024-01-30T07:27:27;19.63;;;16.13;;
57433;SDS011;43277;52.672;6.984;2024-01-30T07:29:53;20.13;;;17.25;;
57433;SDS011;43277;52.672;6.984;2024-01-30T07:32:18;22.77;;;16.33;;
57433;SDS011;43277;52.672;6.984;2024-01-30T07:34:44;19.10;;;16.40;;
57433;SDS011;43277;52.672;6.984;2024-01-30T07:37:10;14.93;;;8.63;;
57433;SDS011;43277;52.672;6.984;2024-01-30T07:39:37;16.13;;;8.98;;
57433;SDS011;43277;52.672;6.984;2024-01-30T07:42:03;19.85;;;15.77;;
57433;SDS011;43277;52.672;6.984;2024-01-30T07:44:29;18.55;;;14.50;;
57433;SDS011;43277;52.672;6.984;2024-01-30T07:46:55;20.73;;;15.73;;
57433;SDS011;43277;52.672;6.984;2024-01-30T07:49:20;16.30;;;9.65;;
57433;SDS011;43277;52.672;6.984;2024-01-30T07:51:46;21.25;;;17.00;;
57433;SDS011;43277;52.672;6.984;2024-01-30T07:54:11;19.20;;;16.52;;
57433;SDS011;43277;52.672;6.984;2024-01-30T07:56:37;19.27;;;7.47;;
57433;SDS011;43277;52.672;6.984;2024-01-30T07:59:03;18.67;;;15.23;;
57433;SDS011;43277;52.672;6.984;2024-01-30T08:01:29;15.60;;;8.60;;
57433;SDS011;43277;52.672;6.984;2024-01-30T08:03:54;18.13;;;15.32;;
57433;SDS011;43277;52.672;6.984;2024-01-30T08:06:20;19.30;;;15.60;;
57433;SDS011;43277;52.672;6.984;2024-01-30T08:08:46;18.38;;;15.43;;
57433;SDS011;43277;52.672;6.984;2024-01-30T08:11:11;14.45;;;8.57;;
57433;SDS011;43277;52.672;6.984;2024-01-30T08:13:37;18.05;;;14.38;;
57433;SDS011;43277;52.672;6.984;2024-01-30T08:16:03;11.00;;;5.93;;
57433;SDS011;43277;52.672;6.984;2024-01-30T08:18:29;15.52;;;9.95;;
57433;SDS011;43277;52.672;6.984;2024-01-30T08:20:55;19.88;;;14.15;;
57433;SDS011;43277;52.672;6.984;2024-01-30T08:23:20;15.90;;;12.90;;
57433;SDS011;43277;52.672;6.984;2024-01-30T08:25:46;15.75;;;13.40;;
57433;SDS011;43277;52.672;6.984;2024-01-30T08:28:11;12.43;;;7.22;;
57433;SDS011;43277;52.672;6.984;2024-01-30T08:30:37;18.20;;;13.48;;
57433;SDS011;43277;52.672;6.984;2024-01-30T08:33:04;16.40;;;11.07;;
57433;SDS011;43277;52.672;6.984;2024-01-30T08:35:30;16.42;;;13.68;;
57433;SDS011;43277;52.672;6.984;2024-01-30T08:37:58;14.55;;;11.30;;
57433;SDS011;43277;52.672;6.984;2024-01-30T08:40:24;19.38;;;14.13;;
57433;SDS011;43277;52.672;6.984;2024-01-30T08:42:50;16.38;;;13.45;;
57433;SDS011;43277;52.672;6.984;2024-01-30T08:45:15;15.27;;;13.13;;
57433;SDS011;43277;52.672;6.984;2024-01-30T08:47:41;14.48;;;8.18;;
57433;SDS011;43277;52.672;6.984;2024-01-30T08:50:07;18.40;;;10.32;;
57433;SDS011;43277;52.672;6.984;2024-01-30T08:52:33;17.38;;;13.10;;
57433;SDS011;43277;52.672;6.984;2024-01-30T08:54:59;17.92;;;12.70;;
57433;SDS011;43277;52.672;6.984;2024-01-30T08:57:25;13.52;;;11.98;;
57433;SDS011;43277;52.672;6.984;2024-01-30T08:59:53;11.43;;;8.57;;
57433;SDS011;43277;52.672;6.984;2024-01-30T09:02:19;13.38;;;9.63;;
57433;SDS011;43277;52.672;6.984;2024-01-30T09:04:45;14.30;;;10.30;;
57433;SDS011;43277;52.672;6.984;2024-01-30T09:07:10;14.68;;;11.27;;
57433;SDS011;43277;52.672;6.984;2024-01-30T09:09:38;13.68;;;10.23;;
57433;SDS011;43277;52.672;6.984;2024-01-30T09:12:07;13.75;;;10.23;;
57433;SDS011;43277;52.672;6.984;2024-01-30T09:14:34;14.30;;;10.27;;
57433;SDS011;43277;52.672;6.984;2024-01-30T09:17:03;12.90;;;9.27;;
57433;SDS011;43277;52.672;6.984;2024-01-30T09:19:29;15.00;;;10.80;;
57433;SDS011;43277;52.672;6.984;2024-01-30T09:21:55;14.55;;;10.88;;
57433;SDS011;43277;52.672;6.984;2024-01-30T09:24:21;13.40;;;6.28;;
57433;SDS011;43277;52.672;6.984;2024-01-30T09:26:46;13.75;;;9.73;;
57433;SDS011;43277;52.672;6.984;2024-01-30T09:29:12;15.52;;;9.18;;
57433;SDS011;43277;52.672;6.984;2024-01-30T09:31:37;14.10;;;9.68;;
57433;SDS011;43277;52.672;6.984;2024-01-30T09:34:03;13.10;;;9.10;;
57433;SDS011;43277;52.672;6.984;2024-01-30T09:36:28;8.60;;;5.07;;
57433;SDS011;43277;52.672;6.984;2024-01-30T09:38:54;13.32;;;7.13;;
57433;SDS011;43277;52.672;6.984;2024-01-30T09:41:20;6.93;;;4.20;;
57433;SDS011;43277;52.672;6.984;2024-01-30T09:43:48;14.45;;;6.85;;
57433;SDS011;43277;52.672;6.984;2024-01-30T09:46:16;9.88;;;4.93;;
57433;SDS011;43277;52.672;6.984;2024-01-30T09:48:44;12.52;;;9.10;;
57433;SDS011;43277;52.672;6.984;2024-01-30T09:51:11;13.13;;;6.82;;
57433;SDS011;43277;52.672;6.984;2024-01-30T09:53:40;12.15;;;5.07;;
57433;SDS011;43277;52.672;6.984;2024-01-30T09:56:07;11.50;;;5.13;;
57433;SDS011;43277;52.672;6.984;2024-01-30T09:58:32;15.13;;;6.90;;
57433;SDS011;43277;52.672;6.984;2024-01-30T10:00:58;16.25;;;8.63;;
57433;SDS011;43277;52.672;6.984;2024-01-30T10:03:24;11.73;;;7.25;;
57433;SDS011;43277;52.672;6.984;2024-01-30T10:05:50;11.98;;;7.95;;
57433;SDS011;43277;52.672;6.984;2024-01-30T10:08:19;11.02;;;8.00;;
57433;SDS011;43277;52.672;6.984;2024-01-30T10:10:46;9.38;;;4.93;;
57433;SDS011;43277;52.672;6.984;2024-01-30T10:13:12;9.35;;;6.50;;
57433;SDS011;43277;52.672;6.984;2024-01-30T10:15:38;14.80;;;7.32;;
57433;SDS011;43277;52.672;6.984;2024-01-30T10:18:04;9.10;;;5.28;;
57433;SDS011;43277;52.672;6.984;2024-01-30T10:20:33;14.18;;;5.55;;
57433;SDS011;43277;52.672;6.984;2024-01-30T10:22:59;12.98;;;6.78;;
57433;SDS011;43277;52.672;6.984;2024-01-30T10:25:25;11.90;;;6.45;;
57433;SDS011;43277;52.672;6.984;2024-01-30T10:27:54;13.00;;;6.90;;
57433;SDS011;43277;52.672;6.984;2024-01-30T10:30:20;12.85;;;7.30;;
57433;SDS011;43277;52.672;6.984;2024-01-30T10:32:46;9.68;;;4.60;;
57433;SDS011;43277;52.672;6.984;2024-01-30T10:35:12;6.68;;;3.45;;
57433;SDS011;43277;52.672;6.984;2024-01-30T10:37:38;11.23;;;7.10;;
57433;SDS011;43277;52.672;6.984;2024-01-30T10:40:04;11.20;;;6.57;;
57433;SDS011;43277;52.672;6.984;2024-01-30T10:42:31;12.95;;;6.93;;
57433;SDS011;43277;52.672;6.984;2024-01-30T10:45:07;14.80;;;5.68;;
57433;SDS011;43277;52.672;6.984;2024-01-30T10:47:36;17.10;;;6.50;;
57433;SDS011;43277;52.672;6.984;2024-01-30T10:50:03;12.02;;;7.10;;
57433;SDS011;43277;52.672;6.984;2024-01-30T10:52:29;13.68;;;8.50;;
57433;SDS011;43277;52.672;6.984;2024-01-30T10:54:55;10.75;;;5.55;;
57433;SDS011;43277;52.672;6.984;2024-01-30T10:57:24;8.50;;;4.05;;
57433;SDS011;43277;52.672;6.984;2024-01-30T10:59:53;9.85;;;5.63;;
57433;SDS011;43277;52.672;6.984;2024-01-30T11:02:22;9.55;;;5.25;;
57433;SDS011;43277;52.672;6.984;2024-01-30T11:04:49;15.93;;;8.82;;
57433;SDS011;43277;52.672;6.984;2024-01-30T11:07:18;13.40;;;6.50;;
57433;SDS011;43277;52.672;6.984;2024-01-30T11:09:49;17.73;;;9.43;;
57433;SDS011;43277;52.672;6.984;2024-01-30T11:12:38;10.38;;;5.72;;
57433;SDS011;43277;52.672;6.984;2024-01-30T11:15:17;11.23;;;6.82;;
57433;SDS011;43277;52.672;6.984;2024-01-30T11:20:27;18.70;;;7.10;;
57433;SDS011;43277;52.672;6.984;2024-01-30T11:23:00;13.75;;;9.13;;
57433;SDS011;43277;52.672;6.984;2024-01-30T11:25:31;12.70;;;7.13;;
57433;SDS011;43277;52.672;6.984;2024-01-30T11:27:57;11.85;;;6.28;;
57433;SDS011;43277;52.672;6.984;2024-01-30T11:30:26;13.48;;;7.53;;
57433;SDS011;43277;52.672;6.984;2024-01-30T11:35:32;14.75;;;7.75;;
57433;SDS011;43277;52.672;6.984;2024-01-30T11:37:59;9.18;;;4.50;;
57433;SDS011;43277;52.672;6.984;2024-01-30T11:40:27;10.57;;;5.88;;
57433;SDS011;43277;52.672;6.984;2024-01-30T11:42:55;11.75;;;6.40;;
57433;SDS011;43277;52.672;6.984;2024-01-30T11:45:21;15.80;;;8.52;;
57433;SDS011;43277;52.672;6.984;2024-01-30T11:47:46;11.07;;;6.95;;
57433;SDS011;43277;52.672;6.984;2024-01-30T11:50:12;10.30;;;5.10;;
57433;SDS011;43277;52.672;6.984;2024-01-30T11:52:39;11.35;;;5.78;;
57433;SDS011;43277;52.672;6.984;2024-01-30T11:55:04;9.73;;;5.25;;
57433;SDS011;43277;52.672;6.984;2024-01-30T11:57:31;12.00;;;6.50;;
57433;SDS011;43277;52.672;6.984;2024-01-30T11:59:56;13.70;;;7.47;;
57433;SDS011;43277;52.672;6.984;2024-01-30T12:02:22;11.98;;;5.38;;
57433;SDS011;43277;52.672;6.984;2024-01-30T12:04:48;13.63;;;8.40;;
57433;SDS011;43277;52.672;6.984;2024-01-30T12:07:13;12.05;;;8.00;;
57433;SDS011;43277;52.672;6.984;2024-01-30T12:09:42;12.57;;;6.93;;
57433;SDS011;43277;52.672;6.984;2024-01-30T12:12:07;13.98;;;7.07;;
57433;SDS011;43277;52.672;6.984;2024-01-30T12:14:37;16.70;;;6.15;;
57433;SDS011;43277;52.672;6.984;2024-01-30T12:17:04;14.02;;;7.80;;
57433;SDS011;43277;52.672;6.984;2024-01-30T12:19:30;14.73;;;6.60;;
57433;SDS011;43277;52.672;6.984;2024-01-30T12:21:56;9.98;;;6.03;;
57433;SDS011;43277;52.672;6.984;2024-01-30T12:24:23;13.35;;;6.45;;
57433;SDS011;43277;52.672;6.984;2024-01-30T12:26:50;11.38;;;5.70;;
57433;SDS011;43277;52.672;6.984;2024-01-30T12:29:16;18.65;;;9.52;;
57433;SDS011;43277;52.672;6.984;2024-01-30T12:31:42;14.50;;;7.57;;
57433;SDS011;43277;52.672;6.984;2024-01-30T12:34:09;11.57;;;6.22;;
57433;SDS011;43277;52.672;6.984;2024-01-30T12:36:34;12.05;;;6.22;;
57433;SDS011;43277;52.672;6.984;2024-01-30T12:39:00;13.65;;;7.70;;
57433;SDS011;43277;52.672;6.984;2024-01-30T12:41:26;13.18;;;7.85;;
57433;SDS011;43277;52.672;6.984;2024-01-30T12:43:54;13.05;;;7.82;;
57433;SDS011;43277;52.672;6.984;2024-01-30T12:46:19;7.30;;;5.00;;
57433;SDS011;43277;52.672;6.984;2024-01-30T12:48:45;11.63;;;5.88;;
57433;SDS011;43277;52.672;6.984;2024-01-30T12:51:11;11.38;;;6.70;;
57433;SDS011;43277;52.672;6.984;2024-01-30T12:53:36;11.00;;;5.38;;
57433;SDS011;43277;52.672;6.984;2024-01-30T12:56:02;7.38;;;3.28;;
57433;SDS011;43277;52.672;6.984;2024-01-30T12:58:28;12.45;;;5.47;;
57433;SDS011;43277;52.672;6.984;2024-01-30T13:00:53;15.02;;;6.55;;
57433;SDS011;43277;52.672;6.984;2024-01-30T13:03:19;9.85;;;4.70;;
57433;SDS011;43277;52.672;6.984;2024-01-30T13:05:45;10.13;;;6.45;;
57433;SDS011;43277;52.672;6.984;2024-01-30T13:08:10;14.05;;;7.40;;
57433;SDS011;43277;52.672;6.984;2024-01-30T13:10:36;14.10;;;5.95;;
57433;SDS011;43277;52.672;6.984;2024-01-30T13:13:02;12.52;;;6.70;;
57433;SDS011;43277;52.672;6.984;2024-01-30T13:15:27;16.08;;;7.03;;
57433;SDS011;43277;52.672;6.984;2024-01-30T13:17:53;12.57;;;7.13;;
57433;SDS011;43277;52.672;6.984;2024-01-30T13:20:19;13.02;;;6.57;;
57433;SDS011;43277;52.672;6.984;2024-01-30T13:22:47;12.38;;;5.28;;
57433;SDS011;43277;52.672;6.984;2024-01-30T13:25:14;11.18;;;5.15;;
57433;SDS011;43277;52.672;6.984;2024-01-30T13:27:40;12.73;;;5.95;;
57433;SDS011;43277;52.672;6.984;2024-01-30T13:30:06;8.98;;;4.10;;
57433;SDS011;43277;52.672;6.984;2024-01-30T13:32:34;9.02;;;4.38;;
57433;SDS011;43277;52.672;6.984;2024-01-30T13:35:00;11.95;;;5.30;;
57433;SDS011;43277;52.672;6.984;2024-01-30T13:37:25;9.88;;;4.90;;
57433;SDS011;43277;52.672;6.984;2024-01-30T13:39:51;13.98;;;6.40;;
57433;SDS011;43277;52.672;6.984;2024-01-30T13:42:16;10.82;;;6.63;;
57433;SDS011;43277;52.672;6.984;2024-01-30T13:44:42;13.57;;;7.30;;
57433;SDS011;43277;52.672;6.984;2024-01-30T13:47:09;11.48;;;6.88;;
57433;SDS011;43277;52.672;6.984;2024-01-30T13:49:34;13.75;;;6.38;;
57433;SDS011;43277;52.672;6.984;2024-01-30T13:52:00;11.15;;;6.43;;
57433;SDS011;43277;52.672;6.984;2024-01-30T13:54:26;13.88;;;6.00;;
57433;SDS011;43277;52.672;6.984;2024-01-30T13:56:51;9.73;;;5.03;;
57433;SDS011;43277;52.672;6.984;2024-01-30T13:59:26;16.20;;;6.72;;
57433;SDS011;43277;52.672;6.984;2024-01-30T14:01:52;14.20;;;6.50;;
57433;SDS011;43277;52.672;6.984;2024-01-30T14:04:17;10.98;;;6.10;;
57433;SDS011;43277;52.672;6.984;2024-01-30T14:06:43;7.18;;;3.50;;
57433;SDS011;43277;52.672;6.984;2024-01-30T14:09:08;8.18;;;3.30;;
57433;SDS011;43277;52.672;6.984;2024-01-30T14:11:35;11.85;;;4.78;;
57433;SDS011;43277;52.672;6.984;2024-01-30T14:14:00;7.18;;;3.10;;
57433;SDS011;43277;52.672;6.984;2024-01-30T14:16:26;9.60;;;3.42;;
57433;SDS011;43277;52.672;6.984;2024-01-30T14:18:53;8.80;;;2.58;;
57433;SDS011;43277;52.672;6.984;2024-01-30T14:21:19;11.40;;;2.90;;
57433;SDS011;43277;52.672;6.984;2024-01-30T14:23:45;6.35;;;2.28;;
57433;SDS011;43277;52.672;6.984;2024-01-30T14:26:12;8.07;;;2.28;;
57433;SDS011;43277;52.672;6.984;2024-01-30T14:28:37;6.28;;;1.70;;
57433;SDS011;43277;52.672;6.984;2024-01-30T14:31:03;5.35;;;1.67;;
57433;SDS011;43277;52.672;6.984;2024-01-30T14:33:29;5.30;;;2.08;;